Time;durP1;ratioP1;P1;durP2;ratioP2;P2;SDS_P1;SDS_P2;PMS_P1;PMS_P2;Temp;Humidity;BMP_temperature;BMP_pressure;BME280_temperature;BME280_humidity;BME280_pressure;Samples;Min_cycle;Max_cycle;Signal;HPM_P1;HPM_P2
2021/01/03 00:02:14;;;;;;;69.05;21.77;;;;;;;-1.11;100.00;95457.59;4970363;28;20047;-43
2021/01/03 00:04:42;;;;;;;75.97;23.77;;;;;;;-1.07;100.00;95462.47;4928267;28;20043;-48
2021/01/03 00:07:09;;;;;;;66.32;20.77;;;;;;;-1.01;100.00;95456.09;4965061;28;20035;-49
2021/01/03 00:09:37;;;;;;;76.65;23.88;;;;;;;-1.01;100.00;95458.66;4961090;28;20066;-49
2021/01/03 00:12:04;;;;;;;68.18;22.20;;;;;;;-1.11;100.00;95458.44;4949122;28;20469;-45
2021/01/03 00:14:32;;;;;;;62.83;20.00;;;;;;;-1.20;100.00;95462.44;4964212;28;20047;-45
2021/01/03 00:17:01;;;;;;;64.53;21.92;;;;;;;-1.17;100.00;95453.69;4936763;28;20039;-44
2021/01/03 00:19:28;;;;;;;68.55;21.60;;;;;;;-1.18;100.00;95461.50;4964828;28;20122;-45
2021/01/03 00:21:55;;;;;;;67.18;21.27;;;;;;;-1.15;100.00;95463.91;4932257;28;20529;-44
2021/01/03 00:24:22;;;;;;;66.78;21.08;;;;;;;-1.15;100.00;95456.97;4950018;28;20117;-44
2021/01/03 00:26:49;;;;;;;72.50;24.65;;;;;;;-1.11;100.00;95466.19;4926533;28;20055;-45
2021/01/03 00:29:18;;;;;;;78.85;23.73;;;;;;;-1.14;100.00;95465.56;4981433;28;20129;-45
2021/01/03 00:31:47;;;;;;;77.32;23.52;;;;;;;-1.05;100.00;95468.38;4933516;28;20054;-46
2021/01/03 00:34:15;;;;;;;72.22;24.25;;;;;;;-1.11;100.00;95463.59;4983497;28;20101;-46
2021/01/03 00:36:43;;;;;;;67.32;21.17;;;;;;;-1.19;100.00;95468.44;4920835;28;20599;-44
2021/01/03 00:39:10;;;;;;;68.78;21.83;;;;;;;-1.11;100.00;95473.13;4961592;28;20057;-48
2021/01/03 00:41:37;;;;;;;78.60;24.85;;;;;;;-1.15;100.00;95467.31;4932586;28;20054;-45
2021/01/03 00:44:05;;;;;;;86.65;27.73;;;;;;;-1.04;100.00;95458.88;4966512;28;20083;-44
2021/01/03 00:46:32;;;;;;;79.95;25.05;;;;;;;-1.03;100.00;95455.38;4930934;28;20591;-47
2021/01/03 00:49:00;;;;;;;67.35;21.60;;;;;;;-1.09;100.00;95456.59;4967338;28;20062;-46
2021/01/03 00:51:27;;;;;;;78.68;24.52;;;;;;;-1.09;100.00;95451.41;4911438;28;20047;-43
2021/01/03 00:53:54;;;;;;;84.47;23.00;;;;;;;-1.00;100.00;95455.16;4963877;28;20436;-46
2021/01/03 00:56:23;;;;;;;88.97;24.98;;;;;;;-1.06;100.00;95460.75;4961282;28;20580;-47
2021/01/03 00:58:51;;;;;;;84.45;25.13;;;;;;;-1.11;100.00;95457.59;4921729;28;20126;-46
2021/01/03 01:01:19;;;;;;;79.15;24.95;;;;;;;-1.09;100.00;95460.94;4962776;28;20035;-46
2021/01/03 01:03:46;;;;;;;95.40;29.88;;;;;;;-1.14;100.00;95457.78;4923880;28;20046;-45
2021/01/03 01:06:14;;;;;;;80.53;24.17;;;;;;;-1.08;100.00;95462.59;4959801;28;20039;-45
2021/01/03 01:08:41;;;;;;;81.70;25.48;;;;;;;-1.10;100.00;95459.25;4937554;28;20047;-47
2021/01/03 01:11:09;;;;;;;82.97;24.00;;;;;;;-1.11;100.00;95463.59;4973944;28;20130;-48
2021/01/03 01:13:36;;;;;;;72.95;20.40;;;;;;;-1.12;100.00;95466.31;4933466;28;20049;-45
2021/01/03 01:16:06;;;;;;;64.10;22.17;;;;;;;-1.05;100.00;95473.56;4971220;28;20072;-47
2021/01/03 01:18:33;;;;;;;96.38;27.20;;;;;;;-1.04;100.00;95476.97;4938559;28;20113;-44
2021/01/03 01:21:00;;;;;;;78.88;23.83;;;;;;;-1.05;100.00;95470.16;4971172;28;20061;-45
2021/01/03 01:23:28;;;;;;;72.97;23.45;;;;;;;-0.97;100.00;95473.88;4932624;28;20105;-44
2021/01/03 01:25:55;;;;;;;55.80;18.73;;;;;;;-1.07;100.00;95483.16;4973694;28;20509;-43
2021/01/03 01:28:22;;;;;;;78.88;24.67;;;;;;;-1.03;100.00;95478.66;4923593;28;20047;-46
2021/01/03 01:30:49;;;;;;;66.30;21.70;;;;;;;-1.13;100.00;95481.00;4971453;28;20062;-47
2021/01/03 01:33:17;;;;;;;66.43;20.85;;;;;;;-1.06;100.00;95476.25;4928201;28;20038;-46
2021/01/03 01:35:45;;;;;;;63.38;20.80;;;;;;;-1.14;100.00;95478.50;4972548;28;20061;-48
2021/01/03 01:38:12;;;;;;;57.65;20.90;;;;;;;-1.15;100.00;95475.06;4939956;28;20042;-45
2021/01/03 01:40:41;;;;;;;61.53;20.05;;;;;;;-1.13;100.00;95477.59;4969792;28;20043;-44
2021/01/03 01:43:10;;;;;;;67.80;20.98;;;;;;;-1.06;100.00;95482.25;4973438;28;20039;-45
2021/01/03 01:45:40;;;;;;;76.80;23.02;;;;;;;-1.07;100.00;95485.75;4939076;28;20125;-48
2021/01/03 01:48:10;;;;;;;75.40;23.98;;;;;;;-1.16;100.00;95481.19;4970500;28;20050;-45
2021/01/03 01:50:40;;;;;;;67.47;19.75;;;;;;;-1.06;100.00;95484.03;4928625;28;20055;-46
2021/01/03 01:53:11;;;;;;;78.93;22.25;;;;;;;-1.11;100.00;95481.72;4975057;28;20548;-45
2021/01/03 01:55:42;;;;;;;67.95;21.60;;;;;;;-1.16;100.00;95478.59;4939216;28;20525;-44
2021/01/03 01:58:14;;;;;;;71.68;21.27;;;;;;;-1.06;100.00;95486.63;4966056;28;20525;-44
2021/01/03 02:00:42;;;;;;;90.90;26.70;;;;;;;-1.02;100.00;95480.31;4941151;28;20133;-46
2021/01/03 02:03:14;;;;;;;82.43;23.83;;;;;;;-1.08;100.00;95485.88;4972965;28;20054;-45
2021/01/03 02:05:46;;;;;;;79.68;23.25;;;;;;;-1.12;100.00;95482.66;4937722;28;20051;-45
2021/01/03 02:08:24;;;;;;;80.68;22.60;;;;;;;-1.02;100.00;95478.53;4975348;28;20567;-46
2021/01/03 02:10:52;;;;;;;81.90;23.65;;;;;;;-1.06;100.00;95469.31;4929311;28;20506;-46
2021/01/03 02:13:23;;;;;;;75.55;21.38;;;;;;;-1.16;100.00;95475.19;4969719;28;21379;-43
2021/01/03 02:15:51;;;;;;;67.55;21.30;;;;;;;-1.08;100.00;95478.09;4932375;28;20453;-45
2021/01/03 02:18:18;;;;;;;74.07;22.02;;;;;;;-1.01;100.00;95479.38;4970503;28;20126;-48
2021/01/03 02:20:54;;;;;;;75.47;23.67;;;;;;;-1.02;100.00;95477.72;4927982;28;20042;-48
2021/01/03 02:23:31;;;;;;;44.67;14.38;;;;;;;-1.12;100.00;95474.06;4970215;28;20046;-45
2021/01/03 02:25:59;;;;;;;76.95;23.45;;;;;;;-1.09;100.00;95469.53;4931978;28;20058;-44
2021/01/03 02:28:27;;;;;;;68.75;21.92;;;;;;;-0.97;100.00;95470.47;4966849;28;20051;-44
2021/01/03 02:30:56;;;;;;;60.33;19.83;;;;;;;-1.03;100.00;95474.31;4925515;28;20106;-46
2021/01/03 02:33:29;;;;;;;70.85;21.00;;;;;;;-0.98;100.00;95455.88;4964420;28;20058;-45
2021/01/03 02:36:06;;;;;;;71.85;21.92;;;;;;;-1.05;100.00;95455.47;4938525;28;20050;-48
2021/01/03 02:38:37;;;;;;;60.13;19.90;;;;;;;-1.07;100.00;95459.06;4964611;28;20047;-46
2021/01/03 02:41:04;;;;;;;77.22;22.80;;;;;;;-1.00;100.00;95458.59;4937691;28;20564;-50
2021/01/03 02:43:31;;;;;;;63.45;21.13;;;;;;;-1.08;100.00;95452.25;4967235;28;20512;-43
2021/01/03 02:45:59;;;;;;;63.45;19.88;;;;;;;-0.96;100.00;95456.63;4932973;28;22488;-48
2021/01/03 02:48:26;;;;;;;70.22;23.00;;;;;;;-0.93;100.00;95469.34;4968926;28;20038;-46
2021/01/03 02:50:53;;;;;;;73.80;22.52;;;;;;;-0.99;100.00;95462.00;4944619;28;20050;-44
2021/01/03 02:53:21;;;;;;;81.10;24.50;;;;;;;-0.93;100.00;95464.16;4957376;28;20046;-47
2021/01/03 02:55:48;;;;;;;69.75;22.40;;;;;;;-0.73;100.00;95462.88;4963883;28;20035;-45
2021/01/03 02:58:16;;;;;;;77.57;22.48;;;;;;;-0.73;100.00;95463.69;4930722;28;20784;-46
2021/01/03 03:00:43;;;;;;;82.70;24.05;;;;;;;-0.61;100.00;95469.03;4964357;28;20561;-45
2021/01/03 03:03:10;;;;;;;70.10;22.77;;;;;;;-0.72;100.00;95464.56;4935607;28;20457;-45
2021/01/03 03:05:37;;;;;;;74.50;23.08;;;;;;;-0.78;100.00;95460.59;4966802;28;20061;-45
2021/01/03 03:08:05;;;;;;;85.45;24.63;;;;;;;-0.72;100.00;95464.56;4931124;28;20622;-46
2021/01/03 03:10:32;;;;;;;72.03;21.90;;;;;;;-0.70;100.00;95456.69;4962437;28;20693;-44
2021/01/03 03:13:01;;;;;;;71.15;22.88;;;;;;;-0.63;100.00;95448.41;4935839;28;20047;-44
2021/01/03 03:15:32;;;;;;;80.50;23.63;;;;;;;-0.74;100.00;95451.69;4965937;28;20070;-45
2021/01/03 03:18:00;;;;;;;69.70;22.75;;;;;;;-0.79;100.00;95450.34;4919389;28;20268;-46
2021/01/03 03:20:27;;;;;;;78.95;23.80;;;;;;;-0.76;100.00;95447.53;4968723;28;20351;-47
2021/01/03 03:22:54;;;;;;;79.32;23.67;;;;;;;-0.71;100.00;95458.44;4937031;28;20136;-46
2021/01/03 03:25:22;;;;;;;84.70;24.15;;;;;;;-0.61;100.00;95449.13;4965077;28;20053;-44
2021/01/03 03:27:49;;;;;;;77.03;23.50;;;;;;;-0.65;100.00;95452.88;4932218;28;20050;-44
2021/01/03 03:30:19;;;;;;;77.50;22.55;;;;;;;-0.66;100.00;95455.53;4963094;28;20053;-45
2021/01/03 03:32:52;;;;;;;85.85;25.23;;;;;;;-0.52;100.00;95455.44;4926911;28;20055;-46
2021/01/03 03:35:21;;;;;;;86.45;25.45;;;;;;;-0.56;100.00;95454.81;4965761;28;20047;-49
2021/01/03 03:37:47;;;;;;;83.38;24.50;;;;;;;-0.58;100.00;95455.88;4933827;28;20082;-43
2021/01/03 03:40:15;;;;;;;87.43;24.08;;;;;;;-0.66;100.00;95455.53;4966707;28;20138;-50
2021/01/03 03:42:42;;;;;;;84.38;23.13;;;;;;;-0.73;100.00;95452.53;4962638;28;20121;-44
2021/01/03 03:45:10;;;;;;;84.57;24.70;;;;;;;-0.79;100.00;95456.38;4935125;28;20778;-46
2021/01/03 03:47:37;;;;;;;90.85;25.15;;;;;;;-0.74;100.00;95451.69;4964723;28;20091;-44
2021/01/03 03:50:07;;;;;;;80.22;25.38;;;;;;;-0.79;100.00;95448.59;4920923;28;20655;-43
2021/01/03 03:52:34;;;;;;;76.13;25.58;;;;;;;-0.81;100.00;95454.78;4966923;28;20109;-47
2021/01/03 03:55:01;;;;;;;86.85;25.55;;;;;;;-0.77;100.00;95451.91;4929558;28;20504;-49
2021/01/03 03:57:28;;;;;;;86.55;25.30;;;;;;;-0.76;100.00;95455.31;4962686;28;20066;-44
2021/01/03 03:59:55;;;;;;;85.53;26.58;;;;;;;-0.77;100.00;95457.06;4932854;28;20522;-47
2021/01/03 04:02:22;;;;;;;75.45;24.02;;;;;;;-0.78;100.00;95449.44;4963691;28;20053;-46
2021/01/03 04:04:49;;;;;;;86.80;24.55;;;;;;;-0.81;100.00;95445.28;4933394;28;20422;-47
2021/01/03 04:07:17;;;;;;;80.82;24.23;;;;;;;-0.75;100.00;95446.63;4963048;28;20121;-47
2021/01/03 04:09:44;;;;;;;76.85;23.63;;;;;;;-0.67;100.00;95440.94;4932455;28;20050;-48
2021/01/03 04:12:10;;;;;;;94.78;25.10;;;;;;;-0.73;100.00;95444.75;4962694;28;20049;-46
2021/01/03 04:14:37;;;;;;;83.75;24.15;;;;;;;-0.67;100.00;95446.13;4935622;28;20561;-46
2021/01/03 04:17:04;;;;;;;78.82;24.20;;;;;;;-0.71;100.00;95435.16;4969022;28;20061;-45
2021/01/03 04:19:31;;;;;;;76.25;21.08;;;;;;;-0.71;100.00;95432.56;4922736;28;20110;-49
2021/01/03 04:22:00;;;;;;;67.95;22.90;;;;;;;-0.65;100.00;95434.75;4963896;28;20045;-48
2021/01/03 04:24:29;;;;;;;77.13;22.65;;;;;;;-0.53;100.00;95435.69;4967931;28;20146;-47
2021/01/03 04:26:59;;;;;;;73.25;21.10;;;;;;;-0.55;100.00;95433.22;4952409;28;20047;-46
2021/01/03 04:29:26;;;;;;;67.30;21.33;;;;;;;-0.54;100.00;95434.03;4945188;28;20057;-47
2021/01/03 04:31:55;;;;;;;74.68;21.13;;;;;;;-0.59;100.00;95436.06;4928491;28;20039;-46
2021/01/03 04:34:22;;;;;;;69.78;23.13;;;;;;;-0.44;100.00;95439.44;4963630;28;20490;-44
2021/01/03 04:36:51;;;;;;;70.90;20.38;;;;;;;-0.54;100.00;95441.81;4931540;28;20066;-44
2021/01/03 04:39:18;;;;;;;69.63;22.92;;;;;;;-0.43;100.00;95435.91;4965913;28;20047;-49
2021/01/03 04:41:48;;;;;;;71.78;21.95;;;;;;;-0.43;100.00;95431.53;4924890;28;20990;-45
2021/01/03 04:44:20;;;;;;;66.03;20.60;;;;;;;-0.54;100.00;95431.44;4964294;28;20113;-49
2021/01/03 04:46:48;;;;;;;74.55;21.63;;;;;;;-0.52;100.00;95433.00;4933319;28;20330;-46
2021/01/03 04:49:23;;;;;;;72.32;21.13;;;;;;;-0.50;100.00;95436.31;4966489;28;20039;-46
2021/01/03 04:52:27;;;;;;;74.35;22.70;;;;;;;-0.46;100.00;95439.50;4933705;28;20128;-47
2021/01/03 04:55:06;;;;;;;73.38;23.73;;;;;;;-0.40;100.00;95439.13;4963232;28;20046;-46
2021/01/03 04:57:41;;;;;;;83.32;24.05;;;;;;;-0.31;100.00;95433.31;4932089;28;20509;-45
2021/01/03 05:00:10;;;;;;;62.63;19.13;;;;;;;-0.47;100.00;95437.88;4963364;28;20053;-46
2021/01/03 05:03:12;;;;;;;80.65;20.60;;;;;;;-0.47;100.00;95442.22;4934024;28;20055;-48
2021/01/03 05:05:45;;;;;;;71.65;22.23;;;;;;;-0.36;100.00;95455.28;4961674;28;20058;-45
2021/01/03 05:08:34;;;;;;;72.93;22.10;;;;;;;-0.43;100.00;95448.84;4936009;28;20434;-45
2021/01/03 05:11:05;;;;;;;67.28;21.38;;;;;;;-0.43;100.00;95451.44;4966126;28;20129;-45
2021/01/03 05:13:46;;;;;;;75.18;22.25;;;;;;;-0.50;100.00;95444.06;4929347;28;20050;-43
2021/01/03 05:16:16;;;;;;;67.28;20.08;;;;;;;-0.63;100.00;95445.00;4957792;28;20046;-45
2021/01/03 05:18:43;;;;;;;72.80;23.25;;;;;;;-0.58;100.00;95442.94;4929445;28;20042;-45
2021/01/03 05:21:11;;;;;;;75.20;23.00;;;;;;;-0.62;100.00;95449.22;4966035;28;20039;-45
2021/01/03 05:23:39;;;;;;;66.28;22.10;;;;;;;-0.62;100.00;95449.22;4931469;28;20073;-46
2021/01/03 05:26:08;;;;;;;70.18;22.00;;;;;;;-0.59;100.00;95449.84;4966303;28;20073;-45
2021/01/03 05:28:38;;;;;;;66.93;19.60;;;;;;;-0.59;100.00;95449.03;4911279;28;20066;-44
2021/01/03 05:31:13;;;;;;;64.18;21.48;;;;;;;-0.67;100.00;95452.13;4964839;28;20054;-44
2021/01/03 05:33:51;;;;;;;68.97;21.63;;;;;;;-0.64;100.00;95453.69;4930753;28;20054;-47
2021/01/03 05:36:32;;;;;;;54.55;19.88;;;;;;;-0.63;100.00;95452.75;4978973;28;20130;-47
2021/01/03 05:39:03;;;;;;;51.10;18.13;;;;;;;-0.75;100.00;95454.41;4922529;28;20047;-47
2021/01/03 05:41:52;;;;;;;67.10;24.55;;;;;;;-0.69;100.00;95455.75;4962863;28;20047;-45
2021/01/03 05:44:23;;;;;;;66.93;22.73;;;;;;;-0.57;100.00;95460.13;4935688;28;20046;-45
2021/01/03 05:46:59;;;;;;;69.05;23.92;;;;;;;-0.53;100.00;95453.81;4968933;28;20462;-44
2021/01/03 05:49:28;;;;;;;71.05;23.70;;;;;;;-0.53;100.00;95466.75;4929078;28;20137;-45
2021/01/03 05:51:58;;;;;;;77.72;24.60;;;;;;;-0.60;100.00;95468.91;4959371;28;20042;-46
2021/01/03 05:54:33;;;;;;;59.97;21.77;;;;;;;-0.65;100.00;95472.75;4930075;28;20134;-50
2021/01/03 05:57:05;;;;;;;67.38;22.85;;;;;;;-0.64;100.00;95471.81;4967560;28;20488;-48
2021/01/03 05:59:34;;;;;;;55.45;18.55;;;;;;;-0.67;100.00;95470.25;4935374;28;20142;-44
2021/01/03 06:02:08;;;;;;;66.05;23.88;;;;;;;-0.70;100.00;95473.03;4967171;28;20530;-46
2021/01/03 06:04:35;;;;;;;63.92;24.20;;;;;;;-0.67;100.00;95475.44;4941237;28;20043;-45
2021/01/03 06:07:18;;;;;;;63.13;24.05;;;;;;;-0.62;100.00;95472.53;4968040;28;20058;-43
2021/01/03 06:09:46;;;;;;;72.10;24.30;;;;;;;-0.61;100.00;95476.78;4933860;28;20050;-44
2021/01/03 06:12:20;;;;;;;67.80;24.75;;;;;;;-0.61;100.00;95487.97;4964828;28;20046;-45
2021/01/03 06:14:49;;;;;;;71.35;24.40;;;;;;;-0.60;100.00;95484.44;4925465;28;20105;-46
2021/01/03 06:17:20;;;;;;;71.20;25.65;;;;;;;-0.74;100.00;95493.13;4972750;28;20066;-46
2021/01/03 06:19:49;;;;;;;62.67;22.13;;;;;;;-0.75;100.00;95486.28;4930952;28;20085;-44
2021/01/03 06:22:35;;;;;;;61.80;23.38;;;;;;;-0.75;100.00;95493.22;4980169;28;20043;-44
2021/01/03 06:25:14;;;;;;;64.70;21.70;;;;;;;-0.72;100.00;95490.44;4930562;28;20078;-45
2021/01/03 06:27:41;;;;;;;63.20;23.02;;;;;;;-0.66;100.00;95484.84;4968265;28;20051;-44
2021/01/03 06:30:12;;;;;;;65.28;23.75;;;;;;;-0.60;100.00;95478.44;4933895;28;20509;-46
2021/01/03 06:32:58;;;;;;;59.67;23.85;;;;;;;-0.60;100.00;95481.84;4967475;28;20078;-43
2021/01/03 06:35:28;;;;;;;68.15;23.60;;;;;;;-0.69;100.00;95481.63;4930632;28;20047;-44
2021/01/03 06:37:57;;;;;;;70.65;23.20;;;;;;;-0.68;100.00;95485.91;4963114;28;20047;-45
2021/01/03 06:40:28;;;;;;;57.90;22.60;;;;;;;-0.72;100.00;95480.09;4935432;28;20102;-45
2021/01/03 06:43:16;;;;;;;62.53;23.50;;;;;;;-0.68;100.00;95489.31;4967376;28;20038;-46
2021/01/03 06:46:09;;;;;;;64.80;23.75;;;;;;;-0.66;100.00;95489.19;4932892;28;20074;-45
2021/01/03 06:49:09;;;;;;;60.65;22.70;;;;;;;-0.63;100.00;95481.22;4963750;28;20585;-48
2021/01/03 06:51:48;;;;;;;55.15;21.13;;;;;;;-0.69;100.00;95487.63;4923552;28;20101;-48
2021/01/03 06:54:44;;;;;;;60.35;22.98;;;;;;;-0.61;100.00;95485.38;4967260;28;20042;-44
2021/01/03 06:57:40;;;;;;;68.03;23.60;;;;;;;-0.62;100.00;95491.50;4933982;28;20593;-47
2021/01/03 07:00:17;;;;;;;61.90;22.95;;;;;;;-0.49;100.00;95499.28;4961622;28;20070;-45
2021/01/03 07:02:48;;;;;;;69.45;26.98;;;;;;;-0.42;100.00;95505.69;4930114;28;20156;-45
2021/01/03 07:05:15;;;;;;;;;;;;;;;-0.56;100.00;95511.78;4969922;28;20046;-44
2021/01/03 07:07:48;;;;;;;60.75;22.13;;;;;;;-0.45;100.00;95516.25;4932732;28;20281;-45
2021/01/03 07:10:34;;;;;;;67.15;24.48;;;;;;;-0.54;100.00;95520.31;4965009;28;20043;-48
2021/01/03 07:13:02;;;;;;;61.38;23.48;;;;;;;-0.43;100.00;95516.19;4926888;28;20047;-44
2021/01/03 07:15:40;;;;;;;73.90;25.92;;;;;;;-0.38;100.00;95514.94;4963110;28;20039;-45
2021/01/03 07:18:30;;;;;;;67.25;24.95;;;;;;;-0.36;100.00;95514.84;4932010;28;20053;-46
2021/01/03 07:21:13;;;;;;;68.40;24.58;;;;;;;-0.40;100.00;95514.22;4967911;28;20062;-45
2021/01/03 07:23:41;;;;;;;63.58;24.25;;;;;;;-0.49;100.00;95518.22;4927033;28;20047;-44
2021/01/03 07:26:18;;;;;;;65.88;24.98;;;;;;;-0.47;100.00;95510.38;4964873;28;20509;-45
2021/01/03 07:28:48;;;;;;;64.68;23.85;;;;;;;-0.38;100.00;95514.94;4936021;28;20125;-44
2021/01/03 07:31:39;;;;;;;57.33;21.23;;;;;;;-0.39;100.00;95525.41;4965957;28;20051;-44
2021/01/03 07:34:09;;;;;;;69.35;25.80;;;;;;;-0.35;100.00;95524.25;4928913;28;20560;-44
2021/01/03 07:36:54;;;;;;;79.35;24.63;;;;;;;-0.35;100.00;95527.69;4963801;28;20053;-44
2021/01/03 07:39:27;;;;;;;75.22;25.70;;;;;;;-0.25;100.00;95531.31;4926147;28;20043;-45
2021/01/03 07:42:17;;;;;;;79.85;25.02;;;;;;;-0.26;100.00;95537.44;4963898;28;20047;-44
2021/01/03 07:44:45;;;;;;;;;;;;;;;-0.25;100.00;95533.91;4968902;28;20054;-46
2021/01/03 07:47:12;;;;;;;69.30;23.58;;;;;;;-0.24;100.00;95537.34;4967253;28;19926;-45
2021/01/03 07:49:44;;;;;;;82.78;28.40;;;;;;;-0.22;100.00;95540.66;4922022;28;20387;-46
2021/01/03 07:52:40;;;;;;;83.47;26.30;;;;;;;-0.34;100.00;95542.31;4967077;28;20051;-48
2021/01/03 07:55:26;;;;;;;71.28;24.88;;;;;;;-0.18;100.00;95536.09;4966896;28;20395;-45
2021/01/03 07:57:55;;;;;;;76.45;26.35;;;;;;;-0.20;100.00;95537.97;4925459;28;20097;-45
2021/01/03 08:00:23;;;;;;;68.95;23.27;;;;;;;-0.18;100.00;95538.69;4966439;28;20054;-44
2021/01/03 08:02:54;;;;;;;72.90;23.35;;;;;;;-0.15;100.00;95539.31;4965940;28;20514;-47
2021/01/03 08:05:22;;;;;;;61.22;22.70;;;;;;;-0.14;100.00;95534.97;4925996;28;20042;-47
2021/01/03 08:07:50;;;;;;;77.25;24.08;;;;;;;-0.18;100.00;95536.91;4969710;28;20038;-44
2021/01/03 08:10:18;;;;;;;65.82;21.98;;;;;;;-0.19;100.00;95544.81;4925128;28;20121;-46
2021/01/03 08:12:47;;;;;;;72.40;24.95;;;;;;;-0.13;100.00;95537.47;4963359;28;20070;-46
2021/01/03 08:15:25;;;;;;;74.70;25.73;;;;;;;0.04;100.00;95530.31;4937989;28;20113;-47
2021/01/03 08:17:53;;;;;;;84.47;25.50;;;;;;;0.11;100.00;95535.00;4965979;28;20062;-47
2021/01/03 08:20:25;;;;;;;68.80;24.92;;;;;;;0.18;100.00;95536.22;4924469;28;20130;-45
2021/01/03 08:22:52;;;;;;;82.30;26.25;;;;;;;0.15;100.00;95539.03;4963534;28;20047;-44
2021/01/03 08:25:24;;;;;;;74.05;25.75;;;;;;;0.15;100.00;95541.63;4935061;28;20086;-46
2021/01/03 08:28:05;;;;;;;83.47;26.60;;;;;;;0.15;100.00;95546.81;4964007;28;20051;-47
2021/01/03 08:30:35;;;;;;;83.27;24.53;;;;;;;0.24;100.00;95550.50;4923328;28;20691;-47
2021/01/03 08:33:06;;;;;;;85.05;24.88;;;;;;;0.28;100.00;95553.75;4965101;28;20058;-45
2021/01/03 08:35:33;;;;;;;76.90;24.05;;;;;;;0.26;100.00;95556.44;4933045;28;20601;-45
2021/01/03 08:38:02;;;;;;;81.30;24.95;;;;;;;0.23;100.00;95562.66;4966113;28;20043;-47
2021/01/03 08:40:31;;;;;;;74.78;25.20;;;;;;;0.32;100.00;95563.81;4934554;28;20051;-50
2021/01/03 08:43:02;;;;;;;73.07;25.63;;;;;;;0.43;100.00;95566.50;4964415;28;20390;-49
2021/01/03 08:45:31;;;;;;;83.70;25.67;;;;;;;0.55;100.00;95567.44;4935184;28;20584;-49
2021/01/03 08:48:03;;;;;;;77.50;23.27;;;;;;;0.38;100.00;95573.78;4965998;28;20387;-47
2021/01/03 08:50:33;;;;;;;75.93;25.33;;;;;;;0.34;100.00;95571.47;4923081;28;20134;-46
2021/01/03 08:53:03;;;;;;;72.15;25.60;;;;;;;0.46;100.00;95573.25;4965275;28;20043;-46
2021/01/03 08:55:33;;;;;;;79.20;24.63;;;;;;;0.43;100.00;95574.28;4931258;28;20623;-46
2021/01/03 08:58:01;;;;;;;80.82;25.02;;;;;;;0.56;100.00;95576.88;4965629;28;20086;-50
2021/01/03 09:00:34;;;;;;;76.93;23.98;;;;;;;0.59;100.00;95574.06;4931304;28;22905;-44
2021/01/03 09:03:02;;;;;;;73.57;25.83;;;;;;;0.52;100.00;95579.75;4965053;28;20073;-45
2021/01/03 09:05:33;;;;;;;74.28;24.20;;;;;;;0.64;100.00;95582.34;4936670;28;20034;-46
2021/01/03 09:08:01;;;;;;;74.07;24.27;;;;;;;0.60;100.00;95586.09;4965471;28;20137;-47
2021/01/03 09:10:33;;;;;;;73.22;23.88;;;;;;;0.62;100.00;95585.97;4965159;28;20051;-47
2021/01/03 09:13:22;;;;;;;78.68;25.58;;;;;;;0.62;100.00;95592.00;4948059;28;20043;-45
2021/01/03 09:15:58;;;;;;;66.07;23.40;;;;;;;0.65;100.00;95590.94;4932864;28;20042;-46
2021/01/03 09:18:28;;;;;;;77.88;26.80;;;;;;;0.68;100.00;95596.75;4963188;28;20058;-48
2021/01/03 09:21:03;;;;;;;66.68;23.23;;;;;;;0.71;100.00;95601.75;4967243;28;20066;-49
2021/01/03 09:23:31;;;;;;;69.18;23.42;;;;;;;0.73;100.00;95600.81;4964550;28;20058;-43
2021/01/03 09:25:59;;;;;;;70.30;24.10;;;;;;;0.54;100.00;95606.44;4967394;28;20513;-45
2021/01/03 09:28:28;;;;;;;74.72;24.63;;;;;;;0.64;100.00;95612.66;4937870;28;20473;-46
2021/01/03 09:31:21;;;;;;;71.32;23.85;;;;;;;0.60;100.00;95612.03;4967465;28;20125;-47
2021/01/03 09:33:51;;;;;;;73.15;24.30;;;;;;;0.65;100.00;95624.69;4950149;28;20568;-46
2021/01/03 09:36:41;;;;;;;73.95;25.08;;;;;;;0.59;100.00;95625.94;4969644;28;20109;-45
2021/01/03 09:39:34;;;;;;;74.03;23.58;;;;;;;0.59;100.00;95625.13;4969363;28;20123;-49
2021/01/03 09:42:27;;;;;;;71.22;25.00;;;;;;;0.70;100.00;95627.81;4933406;28;20063;-43
2021/01/03 09:45:00;;;;;;;70.82;25.45;;;;;;;0.69;100.00;95632.16;4971616;28;20046;-45
2021/01/03 09:47:37;;;;;;;67.32;23.77;;;;;;;0.80;100.00;95634.03;4931934;28;20050;-47
2021/01/03 09:50:16;;;;;;;70.03;25.55;;;;;;;0.76;100.00;95640.38;4962020;28;20141;-45
2021/01/03 09:52:45;;;;;;;59.95;21.02;;;;;;;0.70;100.00;95644.19;4936033;28;20074;-44
2021/01/03 09:55:16;;;;;;;63.60;25.05;;;;;;;0.75;100.00;95640.44;4967884;28;20046;-44
2021/01/03 09:57:48;;;;;;;68.60;22.92;;;;;;;0.80;100.00;95634.03;4931013;28;20050;-48
2021/01/03 10:00:17;;;;;;;60.92;23.05;;;;;;;0.88;100.00;95636.91;4970499;28;20144;-45
2021/01/03 10:02:44;;;;;;;62.75;22.33;;;;;;;0.97;100.00;95635.47;4932616;28;20105;-46
2021/01/03 10:05:24;;;;;;;62.90;22.92;;;;;;;0.90;100.00;95640.25;4969254;28;20035;-49
2021/01/03 10:07:59;;;;;;;68.00;22.33;;;;;;;0.93;100.00;95634.84;4937295;28;20043;-44
2021/01/03 10:10:41;;;;;;;58.35;20.55;;;;;;;0.86;100.00;95636.19;4969871;28;20070;-45
2021/01/03 10:13:09;;;;;;;68.43;23.20;;;;;;;1.04;100.00;95635.88;4934493;28;20048;-44
2021/01/03 10:15:37;;;;;;;56.97;20.83;;;;;;;1.00;100.00;95637.00;4969097;28;20038;-49
2021/01/03 10:18:06;;;;;;;63.22;21.95;;;;;;;1.06;100.00;95631.38;4969447;28;20046;-44
2021/01/03 10:20:45;;;;;;;60.65;20.80;;;;;;;1.21;100.00;95632.09;4938233;28;20064;-47
2021/01/03 10:23:15;;;;;;;55.85;20.55;;;;;;;1.04;100.00;95630.66;4968017;28;20051;-48
2021/01/03 10:25:42;;;;;;;49.78;19.60;;;;;;;1.01;100.00;95633.47;4936098;28;20054;-45
2021/01/03 10:28:13;;;;;;;65.43;21.83;;;;;;;1.30;100.00;95632.25;4966894;28;20519;-46
2021/01/03 10:30:41;;;;;;;55.75;20.05;;;;;;;1.04;100.00;95630.66;4929215;28;20070;-49
2021/01/03 10:33:08;;;;;;;48.92;18.48;;;;;;;1.01;100.00;95633.47;4969088;28;20057;-48
2021/01/03 10:35:36;;;;;;;59.45;21.65;;;;;;;1.02;100.00;95627.34;4931023;28;20047;-47
2021/01/03 10:38:04;;;;;;;62.03;21.38;;;;;;;1.08;100.00;95629.50;4970504;28;20066;-45
2021/01/03 10:40:30;;;;;;;60.75;20.33;;;;;;;1.07;100.00;95630.47;4934452;28;20097;-46
2021/01/03 10:42:57;;;;;;;57.63;21.15;;;;;;;1.29;100.00;95629.78;4968462;28;20062;-44
2021/01/03 10:45:25;;;;;;;53.45;20.35;;;;;;;1.27;100.00;95629.88;4935963;28;20657;-48
2021/01/03 10:47:53;;;;;;;62.63;23.23;;;;;;;1.15;100.00;95622.94;4966246;28;20058;-47
2021/01/03 10:50:22;;;;;;;52.70;19.10;;;;;;;0.89;100.00;95622.16;4925635;28;20076;-44
2021/01/03 10:52:49;;;;;;;60.33;21.33;;;;;;;1.19;100.00;95624.38;4969687;28;20461;-46
2021/01/03 10:55:19;;;;;;;62.08;21.38;;;;;;;1.35;100.00;95611.16;4930596;28;20377;-45
2021/01/03 10:57:46;;;;;;;57.47;20.42;;;;;;;1.52;100.00;95613.38;4970482;28;20042;-49
2021/01/03 11:00:15;;;;;;;63.67;22.02;;;;;;;1.60;100.00;95613.66;4931609;28;22439;-49
2021/01/03 11:02:43;;;;;;;59.00;19.98;;;;;;;1.60;100.00;95618.84;4967545;28;20051;-49
2021/01/03 11:05:11;;;;;;;61.85;22.55;;;;;;;1.36;100.00;95615.41;4936257;28;20074;-47
2021/01/03 11:07:38;;;;;;;61.70;21.58;;;;;;;1.59;100.00;95618.97;4967815;28;20359;-47
2021/01/03 11:10:07;;;;;;;61.22;20.67;;;;;;;1.35;100.00;95611.16;4966958;28;20501;-49
2021/01/03 11:12:35;;;;;;;60.63;21.17;;;;;;;1.56;100.00;95614.81;4938588;28;20051;-47
2021/01/03 11:15:03;;;;;;;60.92;21.73;;;;;;;1.73;100.00;95613.59;4966277;28;20074;-48
2021/01/03 11:17:51;;;;;;;58.25;20.83;;;;;;;1.71;100.00;95612.88;4952840;28;20066;-46
2021/01/03 11:20:18;;;;;;;60.22;21.95;;;;;;;1.64;100.00;95614.25;4968544;28;20050;-47
2021/01/03 11:22:46;;;;;;;65.53;22.38;;;;;;;1.63;100.00;95608.22;4928523;28;20051;-44
2021/01/03 11:25:14;;;;;;;54.15;20.00;;;;;;;1.64;100.00;95615.06;4963329;28;20125;-48
2021/01/03 11:27:42;;;;;;;67.20;22.67;;;;;;;1.83;100.00;95598.16;4934893;28;20055;-47
2021/01/03 11:30:10;;;;;;;61.10;20.27;;;;;;;1.43;100.00;95603.63;4950529;28;20169;-46
2021/01/03 11:32:37;;;;;;;61.95;21.25;;;;;;;1.32;100.00;95601.81;4926326;28;20097;-48